createdAt,value
2018-09-04T00:01:01.004Z,96.00
2018-09-04T00:03:29.132Z,96.50
2018-09-04T00:05:57.254Z,96.70
2018-09-04T00:08:25.400Z,96.70
2018-09-04T00:10:53.501Z,96.70
2018-09-04T00:13:21.631Z,96.70
2018-09-04T00:15:49.760Z,96.70
2018-09-04T00:18:17.892Z,96.80
2018-09-04T00:20:46.007Z,96.70
2018-09-04T00:23:14.176Z,96.70
2018-09-04T00:25:42.294Z,96.60
2018-09-04T00:28:10.411Z,96.70
2018-09-04T00:30:38.538Z,96.70
2018-09-04T00:33:06.656Z,96.80
2018-09-04T00:35:41.412Z,97.00
2018-09-04T00:38:09.521Z,97.20
2018-09-04T00:40:38.641Z,97.20
2018-09-04T00:43:06.743Z,97.10
2018-09-04T00:45:34.869Z,97.20
2018-09-04T00:48:02.984Z,97.50
2018-09-04T00:50:31.121Z,97.60
2018-09-04T00:53:00.162Z,97.80
2018-09-04T00:55:28.298Z,97.80
2018-09-04T00:57:56.565Z,97.80
2018-09-04T01:00:27.312Z,98.00
2018-09-04T01:02:55.806Z,98.20
2018-09-04T01:05:23.892Z,98.20
2018-09-04T01:07:52.003Z,98.50
2018-09-04T01:10:20.246Z,98.40
2018-09-04T01:12:48.560Z,98.60
2018-09-04T01:15:16.647Z,98.70
2018-09-04T01:17:44.743Z,98.70
2018-09-04T01:20:12.843Z,98.70
2018-09-04T01:22:40.933Z,98.60
2018-09-04T01:25:09.038Z,98.60
2018-09-04T01:27:37.371Z,98.40
2018-09-04T01:30:05.812Z,98.40
2018-09-04T01:32:33.948Z,98.40
2018-09-04T01:35:02.067Z,98.50
2018-09-04T01:37:30.310Z,98.50
2018-09-04T01:39:58.407Z,98.50
2018-09-04T01:42:26.527Z,98.60
2018-09-04T01:44:54.632Z,98.70
2018-09-04T01:47:22.715Z,98.60
2018-09-04T01:49:50.815Z,98.00
2018-09-04T01:52:18.926Z,97.90
2018-09-04T01:54:47.040Z,97.80
2018-09-04T01:57:15.132Z,97.70
2018-09-04T01:59:43.276Z,97.70
2018-09-04T02:02:11.381Z,97.70
2018-09-04T02:04:39.531Z,98.00
2018-09-04T02:07:07.647Z,98.80
2018-09-04T02:09:35.771Z,99.60
2018-09-04T02:12:03.889Z,99.70
2018-09-04T02:14:32.036Z,99.30
2018-09-04T02:17:00.156Z,98.10
2018-09-04T02:19:28.261Z,97.50
2018-09-04T02:21:56.399Z,97.30
2018-09-04T02:24:24.509Z,97.50
2018-09-04T02:26:52.623Z,97.80
2018-09-04T02:31:55.285Z,97.30
2018-09-04T02:34:23.399Z,97.00
2018-09-04T02:36:51.516Z,96.60
2018-09-04T02:39:19.643Z,96.30
2018-09-04T02:41:47.755Z,96.20
2018-09-04T02:44:15.892Z,96.20
2018-09-04T02:46:44.020Z,96.90
2018-09-04T02:49:12.136Z,97.20
2018-09-04T02:51:40.259Z,97.00
2018-09-04T02:54:08.416Z,96.80
2018-09-04T02:56:36.536Z,97.20
2018-09-04T02:59:04.663Z,97.40
2018-09-04T03:01:32.857Z,96.80
2018-09-04T03:04:00.992Z,96.40
2018-09-04T03:06:29.117Z,96.40
2018-09-04T03:08:57.252Z,96.20
2018-09-04T03:11:25.384Z,96.00
2018-09-04T03:13:53.600Z,96.00
2018-09-04T03:16:21.637Z,96.40
2018-09-04T03:18:49.774Z,96.60
2018-09-04T03:21:17.903Z,97.00
2018-09-04T03:23:46.014Z,97.00
2018-09-04T03:26:14.145Z,97.00
2018-09-04T03:28:42.266Z,96.20
2018-09-04T03:31:10.400Z,96.10
2018-09-04T03:33:38.515Z,96.40
2018-09-04T03:36:06.687Z,96.60
2018-09-04T03:38:34.970Z,96.80
2018-09-04T03:41:03.094Z,96.70
2018-09-04T03:43:31.207Z,97.20
2018-09-04T03:45:59.335Z,97.50
2018-09-04T03:48:27.474Z,98.10
2018-09-04T03:50:55.603Z,97.90
2018-09-04T03:53:23.730Z,97.40
2018-09-04T03:55:51.858Z,97.20
2018-09-04T03:58:19.973Z,97.20
2018-09-04T04:00:48.076Z,97.00
2018-09-04T04:03:16.192Z,96.80
2018-09-04T04:05:44.292Z,96.80
2018-09-04T04:08:12.396Z,97.10
2018-09-04T04:10:40.492Z,96.90
2018-09-04T04:13:08.594Z,96.70
2018-09-04T04:15:36.683Z,96.70
2018-09-04T04:18:05.396Z,96.40
2018-09-04T04:20:33.494Z,96.10
2018-09-04T04:23:01.685Z,96.10
2018-09-04T04:25:29.771Z,96.10
2018-09-04T04:34:56.714Z,97.60
2018-09-04T04:37:24.819Z,99.00
2018-09-04T04:39:53.174Z,98.20
2018-09-04T04:42:21.768Z,98.20
2018-09-04T04:44:50.733Z,97.70
2018-09-04T04:47:24.671Z,97.30
2018-09-04T04:49:52.845Z,97.50
2018-09-04T04:52:21.628Z,98.30
2018-09-04T04:54:52.198Z,98.90
2018-09-04T04:57:21.596Z,97.40
2018-09-04T04:59:51.082Z,97.40
2018-09-04T05:02:21.156Z,96.60
2018-09-04T05:04:50.830Z,96.50
2018-09-04T05:07:20.288Z,96.40
2018-09-04T05:09:49.742Z,96.50
2018-09-04T05:12:18.970Z,96.40
2018-09-04T05:14:47.112Z,96.10
2018-09-04T05:17:15.244Z,96.30
2018-09-04T05:19:43.367Z,96.60
2018-09-04T05:22:11.896Z,97.20
2018-09-04T05:24:40.818Z,97.30
2018-09-04T05:27:09.879Z,97.60
2018-09-04T05:29:42.264Z,97.60
2018-09-04T05:32:15.160Z,96.10
2018-09-04T05:34:43.282Z,96.30
2018-09-04T05:37:11.867Z,97.30
2018-09-04T05:39:39.966Z,98.30
2018-09-04T05:42:14.189Z,98.70
2018-09-04T05:44:42.323Z,98.50
2018-09-04T05:47:10.471Z,98.20
2018-09-04T05:49:38.596Z,98.10
2018-09-04T05:52:06.738Z,97.50
2018-09-04T05:54:34.864Z,97.40
2018-09-04T05:57:02.995Z,97.00
2018-09-04T05:59:31.107Z,96.60
2018-09-04T06:02:04.845Z,96.50
2018-09-04T06:04:32.939Z,96.60
2018-09-04T06:07:01.048Z,96.50
2018-09-04T06:09:29.144Z,96.80
2018-09-04T06:11:57.234Z,96.70
2018-09-04T06:14:25.317Z,96.60
2018-09-04T06:16:53.424Z,96.60
2018-09-04T06:19:21.508Z,96.00
2018-09-04T06:24:24.140Z,96.50
2018-09-04T06:26:52.225Z,96.70
2018-09-04T06:29:20.364Z,96.50
2018-09-04T06:31:48.419Z,96.40
2018-09-04T06:34:16.516Z,96.70
2018-09-04T06:36:44.809Z,96.80
2018-09-04T06:39:13.232Z,96.90
2018-09-04T06:41:41.335Z,96.60
2018-09-04T06:44:09.411Z,96.10
2018-09-04T06:46:37.537Z,96.20
2018-09-04T06:49:05.738Z,96.40
2018-09-04T06:51:34.081Z,96.10
2018-09-04T06:54:02.534Z,95.80
2018-09-04T06:56:30.632Z,95.20
2018-09-04T06:58:58.764Z,95.00
2018-09-04T07:01:26.911Z,94.60
2018-09-04T07:03:55.036Z,93.90
2018-09-04T07:06:23.148Z,94.20
2018-09-04T07:08:51.312Z,94.10
2018-09-04T07:11:19.438Z,94.00
2018-09-04T07:13:47.554Z,94.00
2018-09-04T07:16:15.687Z,93.50
2018-09-04T07:18:43.807Z,93.40
2018-09-04T07:21:11.926Z,93.30
2018-09-04T07:23:40.029Z,93.20
2018-09-04T07:26:08.140Z,92.40
2018-09-04T07:28:36.263Z,92.00
2018-09-04T07:31:04.395Z,91.40
2018-09-04T07:33:32.515Z,90.00
2018-09-04T07:36:00.639Z,87.90
2018-09-04T07:38:28.775Z,87.80
2018-09-04T07:40:56.891Z,87.10
2018-09-04T07:43:25.023Z,86.30
2018-09-04T07:45:59.759Z,85.40
2018-09-04T07:48:27.884Z,85.40
2018-09-04T07:50:55.989Z,84.70
2018-09-04T07:53:24.120Z,83.60
2018-09-04T07:55:52.236Z,82.90
2018-09-04T07:58:20.599Z,82.40
2018-09-04T08:00:48.732Z,82.30
2018-09-04T08:03:16.836Z,81.40
2018-09-04T08:05:44.952Z,81.20
2018-09-04T08:08:13.092Z,81.20
2018-09-04T08:10:56.004Z,79.90
2018-09-04T08:13:24.136Z,80.50
2018-09-04T08:15:52.255Z,80.00
2018-09-04T08:18:20.395Z,80.30
2018-09-04T08:20:48.599Z,80.00
2018-09-04T08:23:16.636Z,79.70
2018-09-04T08:25:44.758Z,79.00
2018-09-04T08:28:13.093Z,78.80
2018-09-04T08:30:41.224Z,78.30
2018-09-04T08:33:09.359Z,78.30
2018-09-04T08:35:37.480Z,78.50
2018-09-04T08:38:05.653Z,78.30
2018-09-04T08:40:33.766Z,78.70
2018-09-04T08:43:02.321Z,78.80
2018-09-04T08:45:31.429Z,77.50
2018-09-04T08:48:01.576Z,77.40
2018-09-04T08:50:31.312Z,77.50
2018-09-04T08:52:59.424Z,76.60
2018-09-04T08:55:27.545Z,76.60
2018-09-04T08:57:55.691Z,75.80
2018-09-04T09:00:23.983Z,75.40
2018-09-04T09:02:52.422Z,76.90
2018-09-04T09:05:20.703Z,76.90
2018-09-04T09:07:48.936Z,76.10
2018-09-04T09:10:17.565Z,75.00
2018-09-04T09:12:45.826Z,74.00
2018-09-04T09:15:13.940Z,74.40
2018-09-04T09:17:42.089Z,73.90
2018-09-04T09:20:10.248Z,73.30
2018-09-04T09:22:38.390Z,73.40
2018-09-04T09:25:06.753Z,73.40
2018-09-04T09:27:35.419Z,73.30
2018-09-04T09:30:04.003Z,73.10
2018-09-04T09:32:32.310Z,73.00
2018-09-04T09:35:00.614Z,72.60
2018-09-04T09:37:28.783Z,73.40
2018-09-04T09:39:56.918Z,72.80
2018-09-04T09:42:25.033Z,73.10
2018-09-04T09:44:53.163Z,72.70
2018-09-04T09:47:21.849Z,72.60
2018-09-04T09:49:50.148Z,72.70
2018-09-04T09:52:18.340Z,73.20
2018-09-04T09:54:46.489Z,73.30
2018-09-04T09:57:14.608Z,74.30
2018-09-04T09:59:42.816Z,74.30
2018-09-04T10:09:15.327Z,73.80
2018-09-04T10:11:43.451Z,72.20
2018-09-04T10:14:11.580Z,71.90
2018-09-04T10:16:39.713Z,71.90
2018-09-04T10:19:07.844Z,72.30
2018-09-04T10:21:35.963Z,70.70
2018-09-04T10:24:04.113Z,71.50
2018-09-04T10:26:32.270Z,71.00
2018-09-04T10:29:00.400Z,70.00
2018-09-04T10:34:06.792Z,71.70
2018-09-04T10:36:34.913Z,71.30
2018-09-04T10:39:08.344Z,70.60
2018-09-04T10:41:36.469Z,71.20
2018-09-04T10:44:04.595Z,71.40
2018-09-04T10:46:32.745Z,71.50
2018-09-04T10:49:00.880Z,71.00
2018-09-04T10:51:28.985Z,71.20
2018-09-04T10:53:57.111Z,72.00
2018-09-04T10:56:25.248Z,72.10
2018-09-04T10:58:53.388Z,72.30
2018-09-04T11:01:21.501Z,71.50
2018-09-04T11:03:49.628Z,71.60
2018-09-04T11:06:17.743Z,71.70
2018-09-04T11:08:45.875Z,71.90
2018-09-04T11:11:13.998Z,72.70
2018-09-04T11:13:42.113Z,73.10
2018-09-04T11:16:10.232Z,74.00
2018-09-04T11:18:38.356Z,73.50
2018-09-04T11:21:06.509Z,73.10
2018-09-04T11:23:34.704Z,72.40
2018-09-04T11:26:02.767Z,73.00
2018-09-04T11:28:31.544Z,73.10
2018-09-04T11:30:59.684Z,73.40
2018-09-04T11:33:34.227Z,73.10
2018-09-04T11:36:02.375Z,73.60
2018-09-04T11:38:30.483Z,74.20
2018-09-04T11:40:58.615Z,74.00
2018-09-04T11:43:26.736Z,73.60
2018-09-04T11:45:54.875Z,72.70
2018-09-04T11:48:23.019Z,72.80
2018-09-04T11:50:51.139Z,72.30
2018-09-04T11:53:19.251Z,72.80
2018-09-04T11:55:47.368Z,72.80
2018-09-04T11:58:15.492Z,72.90
2018-09-04T12:00:45.728Z,71.90
2018-09-04T12:03:15.002Z,70.80
2018-09-04T12:05:43.199Z,70.70
2018-09-04T12:08:11.276Z,70.80
2018-09-04T12:10:39.988Z,70.70
2018-09-04T12:13:08.126Z,69.90
2018-09-04T12:15:40.475Z,69.70
2018-09-04T12:18:09.664Z,68.80
2018-09-04T12:20:46.672Z,69.00
2018-09-04T12:23:14.774Z,68.30
2018-09-04T12:25:43.658Z,68.60
2018-09-04T12:28:11.779Z,68.60
2018-09-04T12:30:39.908Z,69.00
2018-09-04T12:33:08.036Z,69.00
2018-09-04T12:35:36.308Z,67.70
2018-09-04T12:38:05.037Z,68.00
2018-09-04T12:40:33.199Z,67.70
2018-09-04T12:43:02.397Z,67.70
2018-09-04T12:45:34.999Z,68.70
2018-09-04T12:48:03.553Z,67.90
2018-09-04T12:50:31.628Z,68.20
2018-09-04T12:52:59.774Z,67.50
2018-09-04T12:55:27.914Z,67.50
2018-09-04T12:57:56.073Z,67.10
2018-09-04T13:00:24.247Z,67.10
2018-09-04T13:02:52.362Z,66.50
2018-09-04T13:05:21.863Z,66.30
2018-09-04T13:07:49.953Z,66.00
2018-09-04T13:10:18.097Z,66.30
2018-09-04T13:12:46.259Z,66.30
2018-09-04T13:15:15.113Z,66.10
2018-09-04T13:17:43.615Z,66.40
2018-09-04T13:20:11.752Z,66.60
2018-09-04T13:22:39.854Z,66.70
2018-09-04T13:25:08.011Z,64.80
2018-09-04T13:27:36.128Z,64.80
2018-09-04T13:30:04.584Z,64.30
2018-09-04T13:32:32.728Z,64.00
2018-09-04T13:35:00.860Z,64.40
2018-09-04T13:37:28.975Z,64.20
2018-09-04T13:40:00.844Z,64.50
2018-09-04T13:42:30.144Z,64.40
2018-09-04T13:44:58.275Z,64.70
2018-09-04T13:47:28.459Z,64.30
2018-09-04T13:49:57.167Z,64.40
2018-09-04T13:52:26.362Z,64.70
2018-09-04T13:54:54.480Z,64.30
2018-09-04T13:57:22.752Z,64.50
2018-09-04T13:59:50.919Z,64.40
2018-09-04T14:02:19.088Z,64.10
2018-09-04T14:04:47.227Z,64.80
2018-09-04T14:07:15.342Z,64.60
2018-09-04T14:09:43.887Z,64.10
2018-09-04T14:12:12.085Z,63.80
2018-09-04T14:14:40.221Z,64.20
2018-09-04T14:17:10.669Z,64.00
2018-09-04T14:19:38.777Z,63.50
2018-09-04T14:22:07.148Z,63.80
2018-09-04T14:24:35.471Z,63.20
2018-09-04T14:27:03.590Z,63.20
2018-09-04T14:31:59.986Z,64.80
2018-09-04T14:34:28.143Z,66.80
2018-09-04T14:36:56.562Z,67.70
2018-09-04T14:39:24.588Z,68.20
2018-09-04T14:41:53.413Z,68.80
2018-09-04T14:44:22.240Z,69.30
2018-09-04T14:46:50.922Z,70.20
2018-09-04T14:49:19.224Z,70.70
2018-09-04T14:51:47.331Z,70.60
2018-09-04T14:54:15.461Z,71.10
2018-09-04T14:56:43.607Z,71.80
2018-09-04T14:59:12.488Z,72.20
2018-09-04T15:01:41.072Z,72.50
2018-09-04T15:04:09.203Z,72.60
2018-09-04T15:06:37.363Z,72.60
2018-09-04T15:09:06.325Z,72.50
2018-09-04T15:11:34.650Z,72.50
2018-09-04T15:14:03.412Z,72.40
2018-09-04T15:16:32.103Z,73.00
2018-09-04T15:19:00.631Z,72.90
2018-09-04T15:25:01.358Z,74.00
2018-09-04T15:27:29.498Z,75.60
2018-09-04T15:29:57.616Z,76.80
2018-09-04T15:32:25.746Z,77.30
2018-09-04T15:34:53.888Z,77.80
2018-09-04T15:37:21.991Z,77.40
2018-09-04T15:39:50.079Z,77.60
2018-09-04T15:42:18.192Z,77.90
2018-09-04T15:47:20.956Z,75.80
2018-09-04T15:49:49.208Z,73.60
2018-09-04T15:52:17.819Z,71.90
2018-09-04T15:54:45.925Z,71.00
2018-09-04T15:57:14.595Z,72.20
2018-09-04T15:59:42.724Z,72.40
2018-09-04T16:02:10.890Z,72.80
2018-09-04T16:04:39.043Z,73.10
2018-09-04T16:08:10.447Z,73.20
2018-09-04T16:10:38.542Z,72.80
2018-09-04T16:13:06.860Z,73.10
2018-09-04T16:15:35.019Z,74.00
2018-09-04T16:18:03.189Z,74.40
2018-09-04T16:20:31.322Z,75.00
2018-09-04T16:22:59.445Z,76.10
2018-09-04T16:25:27.549Z,76.40
2018-09-04T16:27:55.676Z,77.50
2018-09-04T16:30:23.853Z,78.40
2018-09-04T16:32:51.972Z,78.40
2018-09-04T16:35:20.195Z,78.20
2018-09-04T16:37:48.396Z,78.80
2018-09-04T16:40:16.501Z,78.40
2018-09-04T16:42:44.716Z,78.10
2018-09-04T16:45:12.836Z,78.20
2018-09-04T16:47:40.987Z,78.60
2018-09-04T16:50:09.158Z,79.40
2018-09-04T16:52:37.323Z,79.70
2018-09-04T16:55:05.831Z,80.10
2018-09-04T16:57:34.004Z,80.70
2018-09-04T17:00:02.086Z,81.10
2018-09-04T17:02:30.529Z,81.40
2018-09-04T17:04:58.670Z,81.90
2018-09-04T17:07:26.797Z,82.40
2018-09-04T17:09:55.014Z,82.70
2018-09-04T17:12:23.151Z,82.50
2018-09-04T17:14:51.324Z,82.70
2018-09-04T17:17:19.447Z,82.90
2018-09-04T17:19:47.575Z,83.10
2018-09-04T17:22:15.693Z,83.10
2018-09-04T17:24:44.409Z,83.50
2018-09-04T17:27:12.566Z,83.70
2018-09-04T17:29:40.702Z,83.80
2018-09-04T17:32:08.849Z,83.60
2018-09-04T17:34:36.950Z,83.70
2018-09-04T17:37:05.184Z,83.80
2018-09-04T17:39:33.308Z,83.70
2018-09-04T17:42:01.452Z,83.50
2018-09-04T17:44:29.608Z,83.80
2018-09-04T17:46:57.720Z,84.00
2018-09-04T17:49:25.851Z,84.00
2018-09-04T17:51:53.973Z,84.10
2018-09-04T17:54:22.110Z,84.30
2018-09-04T17:56:50.229Z,84.50
2018-09-04T17:59:18.367Z,84.60
2018-09-04T18:01:46.500Z,84.50
2018-09-04T18:04:14.813Z,84.50
2018-09-04T18:06:42.949Z,84.80
2018-09-04T18:09:11.129Z,85.10
2018-09-04T18:11:39.248Z,85.40
2018-09-04T18:14:07.396Z,85.60
2018-09-04T18:16:35.498Z,86.10
2018-09-04T18:19:03.664Z,86.50
2018-09-04T18:21:31.822Z,86.80
2018-09-04T18:23:59.963Z,87.50
2018-09-04T18:26:28.147Z,87.90
2018-09-04T18:28:56.245Z,88.20
2018-09-04T18:31:24.447Z,88.70
2018-09-04T18:33:52.577Z,88.90
2018-09-04T18:36:20.724Z,88.90
2018-09-04T18:38:48.878Z,89.10
2018-09-04T18:41:16.972Z,89.00
2018-09-04T18:43:45.128Z,89.00
2018-09-04T18:46:13.315Z,89.00
2018-09-04T18:48:41.501Z,87.40
2018-09-04T18:51:09.538Z,86.20
2018-09-04T18:53:37.717Z,86.10
2018-09-04T18:56:05.868Z,86.00
2018-09-04T18:58:34.045Z,85.20
2018-09-04T19:01:02.164Z,84.90
2018-09-04T19:03:30.294Z,84.70
2018-09-04T19:05:58.502Z,84.70
2018-09-04T19:08:26.678Z,84.90
2018-09-04T19:10:54.827Z,85.30
2018-09-04T19:13:22.947Z,85.60
2018-09-04T19:15:51.165Z,85.50
2018-09-04T19:18:19.294Z,85.70
2018-09-04T19:20:47.424Z,85.70
2018-09-04T19:23:15.563Z,85.60
2018-09-04T19:25:43.681Z,85.70
2018-09-04T19:28:11.855Z,85.50
2018-09-04T19:30:39.980Z,85.50
2018-09-04T19:33:08.153Z,85.30
2018-09-04T19:35:36.285Z,85.50
2018-09-04T19:38:04.427Z,85.80
2018-09-04T19:40:32.568Z,86.10
2018-09-04T19:43:01.069Z,86.20
2018-09-04T19:45:29.208Z,86.30
2018-09-04T19:47:57.332Z,86.50
2018-09-04T19:50:25.552Z,86.40
2018-09-04T19:52:53.660Z,86.00
2018-09-04T19:55:21.850Z,86.00
2018-09-04T19:57:49.932Z,86.10
2018-09-04T20:00:18.118Z,86.50
2018-09-04T20:02:46.194Z,86.50
2018-09-04T20:05:14.488Z,86.40
2018-09-04T20:07:42.601Z,86.50
2018-09-04T20:10:10.678Z,86.80
2018-09-04T20:12:38.794Z,86.90
2018-09-04T20:15:06.899Z,87.00
2018-09-04T20:17:34.989Z,87.10
2018-09-04T20:20:03.089Z,87.00
2018-09-04T20:22:31.191Z,87.20
2018-09-04T20:24:59.284Z,87.30
2018-09-04T20:27:27.440Z,87.10
2018-09-04T20:29:55.531Z,87.00
2018-09-04T20:32:24.335Z,87.10
2018-09-04T20:34:52.447Z,86.90
2018-09-04T20:37:20.552Z,87.10
2018-09-04T20:39:48.999Z,87.20
2018-09-04T20:42:17.249Z,87.20
2018-09-04T20:44:45.424Z,87.10
2018-09-04T20:47:13.543Z,87.30
2018-09-04T20:49:41.635Z,87.60
2018-09-04T20:52:09.724Z,87.60
2018-09-04T20:54:37.809Z,87.30
2018-09-04T20:57:34.411Z,86.90
2018-09-04T21:00:15.520Z,87.10
2018-09-04T21:02:54.979Z,86.70
2018-09-04T21:05:34.820Z,86.80
2018-09-04T21:08:14.125Z,86.20
2018-09-04T21:10:42.584Z,86.30
2018-09-04T21:13:11.576Z,86.20
2018-09-04T21:15:39.699Z,86.40
2018-09-04T21:18:07.858Z,86.50
2018-09-04T21:20:35.965Z,86.50
2018-09-04T21:23:04.192Z,86.50
2018-09-04T21:25:32.314Z,86.50
2018-09-04T21:28:00.422Z,86.40
2018-09-04T21:30:28.777Z,86.50
2018-09-04T21:32:57.061Z,86.70
2018-09-04T21:35:25.471Z,86.40
2018-09-04T21:37:53.588Z,85.80
2018-09-04T21:40:21.769Z,85.80
2018-09-04T21:42:49.822Z,86.10
2018-09-04T21:45:17.948Z,86.20
2018-09-04T21:47:46.108Z,86.30
2018-09-04T21:50:14.178Z,86.30
2018-09-04T21:52:42.285Z,86.50
2018-09-04T21:55:10.434Z,86.60
2018-09-04T21:57:38.541Z,86.80
2018-09-04T22:00:07.450Z,86.80
2018-09-04T22:02:42.392Z,87.00
2018-09-04T22:05:10.524Z,86.90
2018-09-04T22:07:38.727Z,87.10
2018-09-04T22:10:06.826Z,87.20
2018-09-04T22:12:34.943Z,87.10
2018-09-04T22:15:03.061Z,86.90
2018-09-04T22:17:31.172Z,87.00
2018-09-04T22:19:59.296Z,87.20
2018-09-04T22:22:27.412Z,87.30
2018-09-04T22:24:55.536Z,87.50
2018-09-04T22:27:23.641Z,87.70
2018-09-04T22:29:51.772Z,88.00
2018-09-04T22:32:19.883Z,88.40
2018-09-04T22:34:47.985Z,88.50
2018-09-04T22:37:16.098Z,88.60
2018-09-04T22:39:44.216Z,88.40
2018-09-04T22:42:12.345Z,88.40
2018-09-04T22:44:40.486Z,88.40
2018-09-04T22:47:08.644Z,88.20
2018-09-04T22:49:37.275Z,88.00
2018-09-04T22:52:05.395Z,88.40
2018-09-04T22:54:33.510Z,88.80
2018-09-04T22:57:01.636Z,89.10
2018-09-04T22:59:29.725Z,89.30
2018-09-04T23:01:57.819Z,89.20
2018-09-04T23:04:25.912Z,89.20
2018-09-04T23:06:54.004Z,88.90
2018-09-04T23:09:22.098Z,88.90
2018-09-04T23:11:50.196Z,89.10
2018-09-04T23:14:18.290Z,89.30
2018-09-04T23:16:46.383Z,89.40
2018-09-04T23:19:14.475Z,89.80
2018-09-04T23:21:42.567Z,89.60
2018-09-04T23:24:10.651Z,89.70
2018-09-04T23:26:38.738Z,89.90
2018-09-04T23:29:06.926Z,90.10
2018-09-04T23:31:35.019Z,90.40
2018-09-04T23:34:03.112Z,90.30
2018-09-04T23:36:31.244Z,90.90
2018-09-04T23:38:59.340Z,91.20
2018-09-04T23:41:27.443Z,91.30
2018-09-04T23:43:55.536Z,91.60
2018-09-04T23:46:23.653Z,92.20
2018-09-04T23:48:51.727Z,91.80
2018-09-04T23:51:19.827Z,91.70
2018-09-04T23:53:47.928Z,91.40
2018-09-04T23:56:16.024Z,91.80
2018-09-04T23:58:44.105Z,92.60
